createdAt,value
2023-10-25T00:01:48.998Z,3.78
2023-10-25T00:04:16.294Z,3.67
2023-10-25T00:06:43.602Z,5.03
2023-10-25T00:09:10.772Z,3.53
2023-10-25T00:11:37.857Z,3.67
2023-10-25T00:14:05.142Z,3.85
2023-10-25T00:16:32.256Z,3.47
2023-10-25T00:18:59.453Z,3.47
2023-10-25T00:21:26.531Z,3.30
2023-10-25T00:23:53.389Z,3.60
2023-10-25T00:26:20.287Z,4.13
2023-10-25T00:28:47.310Z,3.50
2023-10-25T00:31:14.418Z,4.00
2023-10-25T00:33:41.702Z,3.58
2023-10-25T00:36:08.631Z,4.60
2023-10-25T00:38:35.627Z,4.03
2023-10-25T00:41:02.742Z,4.07
2023-10-25T00:43:29.659Z,3.75
2023-10-25T00:46:15.090Z,3.80
2023-10-25T00:48:47.370Z,4.40
2023-10-25T00:51:16.323Z,3.50
2023-10-25T00:53:47.549Z,3.38
2023-10-25T00:56:15.781Z,3.72
2023-10-25T00:58:45.949Z,3.25
2023-10-25T01:01:16.359Z,4.32
2023-10-25T01:03:43.645Z,3.88
2023-10-25T01:06:11.345Z,3.63
2023-10-25T01:08:38.696Z,3.90
2023-10-25T01:11:06.081Z,3.40
2023-10-25T01:13:33.146Z,3.55
2023-10-25T01:16:00.250Z,3.75
2023-10-25T01:18:27.290Z,3.42
2023-10-25T01:20:54.187Z,3.20
2023-10-25T01:23:21.351Z,3.95
2023-10-25T01:25:48.744Z,3.28
2023-10-25T01:28:15.776Z,3.20
2023-10-25T01:30:43.271Z,3.55
2023-10-25T01:33:10.441Z,3.65
2023-10-25T01:35:37.524Z,3.03
2023-10-25T01:38:04.773Z,3.28
2023-10-25T01:40:31.724Z,3.22
2023-10-25T01:42:59.003Z,2.92
2023-10-25T01:45:28.424Z,3.17
2023-10-25T01:47:55.796Z,2.95
2023-10-25T01:50:23.393Z,3.30
2023-10-25T01:52:50.588Z,3.30
2023-10-25T01:55:17.831Z,3.33
2023-10-25T01:57:46.024Z,2.95
2023-10-25T02:00:13.392Z,3.00
2023-10-25T02:02:40.725Z,2.92
2023-10-25T02:05:08.240Z,3.00
2023-10-25T02:07:35.834Z,2.80
2023-10-25T02:10:03.935Z,2.75
2023-10-25T02:12:30.949Z,2.65
2023-10-25T02:14:58.038Z,2.65
2023-10-25T02:17:25.169Z,2.50
2023-10-25T02:19:52.435Z,2.58
2023-10-25T02:22:19.465Z,2.60
2023-10-25T02:24:46.548Z,2.05
2023-10-25T02:27:13.784Z,2.42
2023-10-25T02:29:41.135Z,2.30
2023-10-25T02:32:10.740Z,2.50
2023-10-25T02:34:38.350Z,2.53
2023-10-25T02:37:05.664Z,2.70
2023-10-25T02:39:32.966Z,2.28
2023-10-25T02:41:59.937Z,2.28
2023-10-25T02:44:26.886Z,2.90
2023-10-25T02:46:58.466Z,2.70
2023-10-25T02:49:25.668Z,2.45
2023-10-25T02:51:52.949Z,2.30
2023-10-25T02:54:20.198Z,2.20
2023-10-25T02:56:47.397Z,2.50
2023-10-25T02:59:14.354Z,2.30
2023-10-25T03:01:41.517Z,2.40
2023-10-25T03:04:09.268Z,2.10
2023-10-25T03:06:36.331Z,2.40
2023-10-25T03:09:03.432Z,2.47
2023-10-25T03:11:30.418Z,2.33
2023-10-25T03:13:57.334Z,2.45
2023-10-25T03:16:24.311Z,2.55
2023-10-25T03:18:51.404Z,2.53
2023-10-25T03:21:18.310Z,2.92
2023-10-25T03:23:45.201Z,2.53
2023-10-25T03:26:13.396Z,2.70
2023-10-25T03:28:41.488Z,2.90
2023-10-25T03:31:09.900Z,2.55
2023-10-25T03:33:37.645Z,2.63
2023-10-25T03:36:05.183Z,2.60
2023-10-25T03:38:32.162Z,2.20
2023-10-25T03:41:06.991Z,2.58
2023-10-25T03:43:35.382Z,2.47
2023-10-25T03:46:09.902Z,2.25
2023-10-25T03:48:38.151Z,2.13
2023-10-25T03:51:06.158Z,2.30
2023-10-25T03:53:40.740Z,2.50
2023-10-25T03:56:07.757Z,2.53
2023-10-25T03:58:34.989Z,2.60
2023-10-25T04:01:05.066Z,2.53
2023-10-25T04:03:33.430Z,2.25
2023-10-25T04:06:00.648Z,2.50
2023-10-25T04:08:27.563Z,2.40
2023-10-25T04:10:58.836Z,2.53
2023-10-25T04:13:26.539Z,2.60
2023-10-25T04:16:05.392Z,3.58
2023-10-25T04:18:33.787Z,2.53
2023-10-25T04:21:01.609Z,3.67
2023-10-25T04:23:32.283Z,2.90
2023-10-25T04:26:12.029Z,2.50
2023-10-25T04:28:40.552Z,3.22
2023-10-25T04:31:11.819Z,2.92
2023-10-25T04:33:40.201Z,2.38
2023-10-25T04:36:08.006Z,3.20
2023-10-25T04:38:38.192Z,2.60
2023-10-25T04:41:05.064Z,2.42
2023-10-25T04:43:32.452Z,2.45
2023-10-25T04:46:00.310Z,2.60
2023-10-25T04:48:27.340Z,2.38
2023-10-25T04:50:54.401Z,2.55
2023-10-25T04:53:21.374Z,2.13
2023-10-25T04:55:48.751Z,2.15
2023-10-25T04:58:15.757Z,2.03
2023-10-25T05:00:42.830Z,2.75
2023-10-25T05:03:13.135Z,1.90
2023-10-25T05:05:41.148Z,2.30
2023-10-25T05:08:11.916Z,2.00
2023-10-25T05:10:39.246Z,1.90
2023-10-25T05:13:06.840Z,1.83
2023-10-25T05:15:37.535Z,2.03
2023-10-25T05:18:05.122Z,1.70
2023-10-25T05:20:32.895Z,1.85
2023-10-25T05:23:03.507Z,2.10
2023-10-25T05:25:30.866Z,1.77
2023-10-25T05:27:57.969Z,1.80
2023-10-25T05:30:25.668Z,1.55
2023-10-25T05:32:56.288Z,2.13
2023-10-25T05:35:23.810Z,1.60
2023-10-25T05:37:51.061Z,1.92
2023-10-25T05:40:20.760Z,1.63
2023-10-25T05:42:49.737Z,1.88
2023-10-25T05:45:17.624Z,1.73
2023-10-25T05:47:44.994Z,1.95
2023-10-25T05:50:12.926Z,2.22
2023-10-25T05:52:45.889Z,2.17
2023-10-25T05:55:17.867Z,2.00
2023-10-25T05:57:47.453Z,2.08
2023-10-25T06:00:15.839Z,2.03
2023-10-25T06:02:45.036Z,2.70
2023-10-25T06:05:16.883Z,3.15
2023-10-25T06:07:44.685Z,2.10
2023-10-25T06:10:15.385Z,2.33
2023-10-25T06:12:43.079Z,2.00
2023-10-25T06:15:11.867Z,2.45
2023-10-25T06:17:39.353Z,2.00
2023-10-25T06:20:07.264Z,2.88
2023-10-25T06:22:34.473Z,2.90
2023-10-25T06:25:01.529Z,2.28
2023-10-25T06:27:28.490Z,2.13
2023-10-25T06:29:55.533Z,1.60
2023-10-25T06:32:22.624Z,1.67
2023-10-25T06:34:49.590Z,2.20
2023-10-25T06:37:16.844Z,2.35
2023-10-25T06:39:44.194Z,2.42
2023-10-25T06:42:12.482Z,2.28
2023-10-25T06:44:39.503Z,2.92
2023-10-25T06:47:10.353Z,2.30
2023-10-25T06:49:37.796Z,2.42
2023-10-25T06:52:05.095Z,2.70
2023-10-25T06:54:32.558Z,2.67
2023-10-25T06:57:00.129Z,2.55
2023-10-25T06:59:27.363Z,2.40
2023-10-25T07:02:06.382Z,2.70
2023-10-25T07:04:34.924Z,2.38
2023-10-25T07:07:03.789Z,2.30
2023-10-25T07:09:31.213Z,2.40
2023-10-25T07:11:58.316Z,1.92
2023-10-25T07:14:25.447Z,2.47
2023-10-25T07:16:53.257Z,2.20
2023-10-25T07:19:20.237Z,2.20
2023-10-25T07:21:47.607Z,2.72
2023-10-25T07:24:14.861Z,2.08
2023-10-25T07:26:42.592Z,1.95
2023-10-25T07:29:09.893Z,2.05
2023-10-25T07:31:36.983Z,2.40
2023-10-25T07:34:04.170Z,2.00
2023-10-25T07:36:31.906Z,2.35
2023-10-25T07:38:58.828Z,2.30
2023-10-25T07:41:25.897Z,2.40
2023-10-25T07:43:53.006Z,2.05
2023-10-25T07:46:19.954Z,2.20
2023-10-25T07:48:46.991Z,2.25
2023-10-25T07:51:13.994Z,1.77
2023-10-25T07:53:40.899Z,1.75
2023-10-25T07:58:37.951Z,1.90
2023-10-25T08:01:05.304Z,1.80
2023-10-25T08:03:32.582Z,1.77
2023-10-25T08:05:59.869Z,1.90
2023-10-25T08:08:26.848Z,2.08
2023-10-25T08:11:01.907Z,2.38
2023-10-25T08:13:29.373Z,2.00
2023-10-25T08:16:00.646Z,2.08
2023-10-25T08:18:30.576Z,1.67
2023-10-25T08:21:00.562Z,2.08
2023-10-25T08:23:28.835Z,2.03
2023-10-25T08:26:00.673Z,1.90
2023-10-25T08:28:27.521Z,1.95
2023-10-25T08:30:54.996Z,2.15
2023-10-25T08:33:22.202Z,1.58
2023-10-25T08:35:49.224Z,1.80
2023-10-25T08:38:16.840Z,2.00
2023-10-25T08:40:44.506Z,1.83
2023-10-25T08:43:15.395Z,2.03
2023-10-25T08:45:45.609Z,2.08
2023-10-25T08:48:12.992Z,1.70
2023-10-25T08:50:40.161Z,2.17
2023-10-25T08:53:07.714Z,1.80
2023-10-25T08:55:34.563Z,1.83
2023-10-25T08:58:01.788Z,2.05
2023-10-25T09:00:47.265Z,1.80
2023-10-25T09:03:35.178Z,1.63
2023-10-25T09:06:07.074Z,1.63
2023-10-25T09:08:35.015Z,1.83
2023-10-25T09:11:16.358Z,2.38
2023-10-25T09:13:43.688Z,2.17
2023-10-25T09:16:15.255Z,2.10
2023-10-25T09:18:44.526Z,2.22
2023-10-25T09:21:13.822Z,1.90
2023-10-25T09:23:42.258Z,2.15
2023-10-25T09:26:17.585Z,1.80
2023-10-25T09:28:48.545Z,1.70
2023-10-25T09:31:24.880Z,1.45
2023-10-25T09:33:52.528Z,1.70
2023-10-25T09:36:22.865Z,1.52
2023-10-25T09:38:52.237Z,1.85
2023-10-25T09:41:20.196Z,1.50
2023-10-25T09:43:52.629Z,1.58
2023-10-25T09:46:21.977Z,1.63
2023-10-25T09:49:00.194Z,2.10
2023-10-25T09:52:17.281Z,1.67
2023-10-25T09:54:59.191Z,1.55
2023-10-25T09:57:30.605Z,1.80
2023-10-25T09:59:58.542Z,1.73
2023-10-25T10:02:45.844Z,1.70
2023-10-25T10:05:15.799Z,1.88
2023-10-25T10:08:00.542Z,1.55
2023-10-25T10:10:40.588Z,1.83
2023-10-25T10:13:21.381Z,1.75
2023-10-25T10:16:10.647Z,1.80
2023-10-25T10:18:39.557Z,1.75
2023-10-25T10:21:09.003Z,1.80
2023-10-25T10:23:45.047Z,1.90
2023-10-25T10:26:13.129Z,1.92
2023-10-25T10:28:50.389Z,1.63
2023-10-25T10:31:19.352Z,1.50
2023-10-25T10:33:49.075Z,1.63
2023-10-25T10:36:31.590Z,1.60
2023-10-25T10:39:17.678Z,7.03
2023-10-25T10:41:45.864Z,4.93
2023-10-25T10:44:12.902Z,2.03
2023-10-25T10:47:01.994Z,2.08
2023-10-25T10:49:34.804Z,1.50
2023-10-25T10:52:04.283Z,1.80
2023-10-25T10:54:31.519Z,2.00
2023-10-25T10:56:58.939Z,1.45
2023-10-25T10:59:29.950Z,1.60
2023-10-25T11:01:57.474Z,1.63
2023-10-25T11:04:24.963Z,1.70
2023-10-25T11:06:52.306Z,1.45
2023-10-25T11:09:19.529Z,1.50
2023-10-25T11:11:46.725Z,1.55
2023-10-25T11:14:14.239Z,1.52
2023-10-25T11:16:41.125Z,1.50
2023-10-25T11:19:09.831Z,1.80
2023-10-25T11:21:37.367Z,1.50
2023-10-25T11:24:08.437Z,1.60
2023-10-25T11:26:39.017Z,1.77
2023-10-25T11:29:07.282Z,1.60
2023-10-25T11:31:34.644Z,1.80
2023-10-25T11:34:02.073Z,1.70
2023-10-25T11:36:31.083Z,2.03
2023-10-25T11:39:09.462Z,1.50
2023-10-25T11:41:36.641Z,1.50
2023-10-25T11:44:03.816Z,1.85
2023-10-25T11:46:43.054Z,1.40
2023-10-25T11:49:09.913Z,1.85
2023-10-25T11:51:38.180Z,1.70
2023-10-25T11:54:17.494Z,1.73
2023-10-25T11:56:45.644Z,1.42
2023-10-25T11:59:12.575Z,1.50
2023-10-25T12:01:39.650Z,2.00
2023-10-25T12:04:07.035Z,2.03
2023-10-25T12:06:36.348Z,2.25
2023-10-25T12:09:03.448Z,2.05
2023-10-25T12:11:30.796Z,1.90
2023-10-25T12:13:57.678Z,2.00
2023-10-25T12:16:25.143Z,2.10
2023-10-25T12:18:52.033Z,2.08
2023-10-25T12:21:18.974Z,2.63
2023-10-25T12:23:45.918Z,2.50
2023-10-25T12:26:12.905Z,2.75
2023-10-25T12:28:39.963Z,2.47
2023-10-25T12:31:06.874Z,2.50
2023-10-25T12:33:33.869Z,2.60
2023-10-25T12:36:02.160Z,2.88
2023-10-25T12:38:29.755Z,3.03
2023-10-25T12:40:56.888Z,3.30
2023-10-25T12:43:24.251Z,3.40
2023-10-25T12:45:52.201Z,2.97
2023-10-25T12:48:19.156Z,2.38
2023-10-25T12:50:46.120Z,2.85
2023-10-25T12:53:12.979Z,2.55
2023-10-25T12:55:39.858Z,2.55
2023-10-25T12:58:07.315Z,2.33
2023-10-25T13:00:34.395Z,2.13
2023-10-25T13:03:01.288Z,2.92
2023-10-25T13:05:28.292Z,2.35
2023-10-25T13:07:55.563Z,2.33
2023-10-25T13:10:22.440Z,2.45
2023-10-25T13:12:49.429Z,2.75
2023-10-25T13:15:16.907Z,3.67
2023-10-25T13:17:43.925Z,3.83
2023-10-25T13:20:11.369Z,5.05
2023-10-25T13:22:38.256Z,5.50
2023-10-25T13:25:06.198Z,5.60
2023-10-25T13:27:33.650Z,5.22
2023-10-25T13:30:00.800Z,5.35
2023-10-25T13:32:28.464Z,5.70
2023-10-25T13:34:56.648Z,5.97
2023-10-25T13:37:24.185Z,6.80
2023-10-25T13:39:54.081Z,7.05
2023-10-25T13:42:22.309Z,7.72
2023-10-25T13:44:49.234Z,7.57
2023-10-25T13:47:16.627Z,9.13
2023-10-25T13:49:43.990Z,8.68
2023-10-25T13:52:11.002Z,9.65
2023-10-25T13:54:38.097Z,9.95
2023-10-25T13:57:05.208Z,10.52
2023-10-25T13:59:32.323Z,10.18
2023-10-25T14:01:59.518Z,10.82
2023-10-25T14:04:26.804Z,10.75
2023-10-25T14:06:53.729Z,10.27
2023-10-25T14:09:20.599Z,9.57
2023-10-25T14:11:49.349Z,8.60
2023-10-25T14:14:16.631Z,8.77
2023-10-25T14:16:47.358Z,8.77
2023-10-25T14:19:14.576Z,8.07
2023-10-25T14:21:41.656Z,8.10
2023-10-25T14:24:09.234Z,7.28
2023-10-25T14:26:36.409Z,6.97
2023-10-25T14:29:03.800Z,7.35
2023-10-25T14:31:31.984Z,7.20
2023-10-25T14:33:58.998Z,7.47
2023-10-25T14:36:52.688Z,6.93
2023-10-25T14:39:20.160Z,6.63
2023-10-25T14:41:47.472Z,6.68
2023-10-25T14:44:14.375Z,5.55
2023-10-25T14:46:41.523Z,5.60
2023-10-25T14:49:10.413Z,5.65
2023-10-25T14:51:38.572Z,5.28
2023-10-25T14:54:05.623Z,5.22
2023-10-25T14:56:32.700Z,5.03
2023-10-25T14:59:02.797Z,4.80
2023-10-25T15:01:29.804Z,5.57
2023-10-25T15:03:57.352Z,5.32
2023-10-25T15:06:29.679Z,4.75
2023-10-25T15:08:57.438Z,4.70
2023-10-25T15:11:24.770Z,4.03
2023-10-25T15:13:51.767Z,3.70
2023-10-25T15:16:19.487Z,3.28
2023-10-25T15:18:48.940Z,3.40
2023-10-25T15:21:17.557Z,3.80
2023-10-25T15:23:45.059Z,3.40
2023-10-25T15:26:13.053Z,3.30
2023-10-25T15:28:40.225Z,3.15
2023-10-25T15:31:11.750Z,2.97
2023-10-25T15:33:40.788Z,2.72
2023-10-25T15:36:08.591Z,3.10
2023-10-25T15:38:36.774Z,3.03
2023-10-25T15:41:20.853Z,3.33
2023-10-25T15:43:48.740Z,3.30
2023-10-25T15:46:22.055Z,2.90
2023-10-25T15:48:51.137Z,3.50
2023-10-25T15:51:18.493Z,3.10
2023-10-25T15:53:46.186Z,2.53
2023-10-25T15:56:14.906Z,2.05
2023-10-25T15:58:45.842Z,1.92
2023-10-25T16:01:17.820Z,1.95
2023-10-25T16:03:52.056Z,2.17
2023-10-25T16:06:19.152Z,1.90
2023-10-25T16:08:46.100Z,2.10
2023-10-25T16:11:16.064Z,2.00
2023-10-25T16:13:43.311Z,1.63
2023-10-25T16:16:11.813Z,1.77
2023-10-25T16:18:39.043Z,1.73
2023-10-25T16:21:07.284Z,1.70
2023-10-25T16:23:37.537Z,2.15
2023-10-25T16:26:07.433Z,1.90
2023-10-25T16:28:34.439Z,2.30
2023-10-25T16:31:04.757Z,2.00
2023-10-25T16:33:38.237Z,2.53
2023-10-25T16:36:12.149Z,2.10
2023-10-25T16:38:39.761Z,2.58
2023-10-25T16:41:09.676Z,2.40
2023-10-25T16:43:38.192Z,2.75
2023-10-25T16:46:06.346Z,2.58
2023-10-25T16:48:36.753Z,2.80
2023-10-25T16:51:21.443Z,2.92
2023-10-25T16:53:50.433Z,3.67
2023-10-25T16:56:20.616Z,3.40
2023-10-25T16:58:48.004Z,3.80
2023-10-25T17:01:16.408Z,4.28
2023-10-25T17:03:44.507Z,4.38
2023-10-25T17:06:13.185Z,4.40
2023-10-25T17:08:41.543Z,4.53
2023-10-25T17:11:10.317Z,4.63
2023-10-25T17:13:38.877Z,5.18
2023-10-25T17:16:06.975Z,4.75
2023-10-25T17:18:36.843Z,5.45
2023-10-25T17:21:11.926Z,5.55
2023-10-25T17:23:39.062Z,5.60
2023-10-25T17:26:07.156Z,5.70
2023-10-25T17:28:34.830Z,4.88
2023-10-25T17:31:02.437Z,5.25
2023-10-25T17:33:30.359Z,4.82
2023-10-25T17:35:58.715Z,5.13
2023-10-25T17:38:25.984Z,5.20
2023-10-25T17:40:53.698Z,5.50
2023-10-25T17:43:21.003Z,5.93
2023-10-25T17:46:10.439Z,6.55
2023-10-25T17:48:39.101Z,6.10
2023-10-25T17:51:09.925Z,6.10
2023-10-25T17:53:37.424Z,5.93
2023-10-25T17:56:05.352Z,4.88
2023-10-25T17:58:32.422Z,5.68
2023-10-25T18:01:00.423Z,5.57
2023-10-25T18:03:28.007Z,4.95
2023-10-25T18:05:55.111Z,5.43
2023-10-25T18:08:25.504Z,5.72
2023-10-25T18:10:55.631Z,5.45
2023-10-25T18:13:22.907Z,5.30
2023-10-25T18:15:51.990Z,6.45
2023-10-25T18:18:20.106Z,6.57
2023-10-25T18:20:51.255Z,6.55
2023-10-25T18:23:19.473Z,7.32
2023-10-25T18:25:46.456Z,6.43
2023-10-25T18:28:13.316Z,5.65
2023-10-25T18:32:01.947Z,5.32
2023-10-25T18:33:28.751Z,5.63
2023-10-25T18:35:56.049Z,6.88
2023-10-25T18:38:24.211Z,7.68
2023-10-25T18:40:56.450Z,6.60
2023-10-25T18:43:25.444Z,6.32
2023-10-25T18:46:02.748Z,6.35
2023-10-25T18:48:30.499Z,6.22
2023-10-25T18:51:07.115Z,5.10
2023-10-25T18:53:34.207Z,6.78
2023-10-25T18:56:02.742Z,7.15
2023-10-25T18:58:30.732Z,8.43
2023-10-25T19:00:57.949Z,7.95
2023-10-25T19:03:28.761Z,6.68
2023-10-25T19:06:24.305Z,7.10
2023-10-25T19:08:43.312Z,8.50
2023-10-25T19:11:10.653Z,7.88
2023-10-25T19:13:39.112Z,6.35
2023-10-25T19:16:10.176Z,6.15
2023-10-25T19:18:37.159Z,7.03
2023-10-25T19:21:06.865Z,6.57
2023-10-25T19:23:34.077Z,6.57
2023-10-25T19:26:03.663Z,6.32
2023-10-25T19:28:30.996Z,6.65
2023-10-25T19:30:58.201Z,6.30
2023-10-25T19:33:25.388Z,6.30
2023-10-25T19:35:52.587Z,6.32
2023-10-25T19:38:19.652Z,6.25
2023-10-25T19:40:46.640Z,9.35
2023-10-25T19:43:13.874Z,8.73
2023-10-25T19:45:40.815Z,11.45
2023-10-25T19:48:08.173Z,12.57
2023-10-25T19:50:35.398Z,11.55
2023-10-25T19:53:02.393Z,11.13
2023-10-25T19:55:29.339Z,9.75
2023-10-25T19:57:56.225Z,8.93
2023-10-25T20:00:24.434Z,8.70
2023-10-25T20:02:51.849Z,8.90
2023-10-25T20:05:19.066Z,7.88
2023-10-25T20:07:46.158Z,7.72
2023-10-25T20:10:13.125Z,7.47
2023-10-25T20:12:40.645Z,7.28
2023-10-25T20:15:09.928Z,6.43
2023-10-25T20:17:40.871Z,7.10
2023-10-25T20:20:08.416Z,7.43
2023-10-25T20:22:36.771Z,7.97
2023-10-25T20:25:05.037Z,7.63
2023-10-25T20:27:36.547Z,6.70
2023-10-25T20:30:04.487Z,7.57
2023-10-25T20:32:32.923Z,7.72
2023-10-25T20:35:00.183Z,7.57
2023-10-25T20:37:28.929Z,7.13
2023-10-25T20:39:56.515Z,7.40
2023-10-25T20:42:23.786Z,8.25
2023-10-25T20:44:50.847Z,7.40
2023-10-25T20:47:17.956Z,7.05
2023-10-25T20:49:45.626Z,8.25
2023-10-25T20:52:12.886Z,7.88
2023-10-25T20:54:40.263Z,7.88
2023-10-25T20:57:08.216Z,7.88
2023-10-25T20:59:35.576Z,8.05
2023-10-25T21:02:02.630Z,8.27
2023-10-25T21:04:32.386Z,9.15
2023-10-25T21:06:59.356Z,9.68
2023-10-25T21:09:26.543Z,9.82
2023-10-25T21:11:53.407Z,11.15
2023-10-25T21:14:20.390Z,11.23
2023-10-25T21:16:47.717Z,11.70
2023-10-25T21:19:14.650Z,11.23
2023-10-25T21:21:41.555Z,10.45
2023-10-25T21:24:08.739Z,11.90
2023-10-25T21:26:35.820Z,10.52
2023-10-25T21:29:03.075Z,11.23
2023-10-25T21:31:32.111Z,10.85
2023-10-25T21:33:59.571Z,10.38
2023-10-25T21:36:27.128Z,10.95
2023-10-25T21:38:54.083Z,12.00
2023-10-25T21:41:21.679Z,11.80
2023-10-25T21:43:48.653Z,12.07
2023-10-25T21:46:15.642Z,13.43
2023-10-25T21:48:42.747Z,11.75
2023-10-25T21:51:09.902Z,12.43
2023-10-25T21:53:39.565Z,13.75
2023-10-25T21:56:22.438Z,13.70
2023-10-25T21:59:49.894Z,13.20
2023-10-25T22:01:46.115Z,14.00
2023-10-25T22:04:19.117Z,13.88
2023-10-25T22:06:47.106Z,14.43
2023-10-25T22:09:19.521Z,15.00
2023-10-25T22:11:47.686Z,15.07
2023-10-25T22:14:14.910Z,13.95
2023-10-25T22:16:42.413Z,14.02
2023-10-25T22:19:09.835Z,16.08
2023-10-25T22:21:36.940Z,15.90
2023-10-25T22:24:04.517Z,14.85
2023-10-25T22:26:31.725Z,16.40
2023-10-25T22:29:12.498Z,15.63
2023-10-25T22:31:43.806Z,15.68
2023-10-25T22:34:12.987Z,16.25
2023-10-25T22:36:43.789Z,15.90
2023-10-25T22:39:10.979Z,15.52
2023-10-25T22:41:38.218Z,15.68
2023-10-25T22:44:05.586Z,15.60
2023-10-25T22:46:32.551Z,14.90
2023-10-25T22:48:59.442Z,14.50
2023-10-25T22:51:26.546Z,14.15
2023-10-25T22:53:53.740Z,14.82
2023-10-25T22:56:20.609Z,14.18
2023-10-25T22:58:47.500Z,12.65
2023-10-25T23:01:14.401Z,13.48
2023-10-25T23:03:41.282Z,13.88
2023-10-25T23:06:08.247Z,13.52
2023-10-25T23:08:35.163Z,14.38
2023-10-25T23:11:01.977Z,13.82
2023-10-25T23:13:28.950Z,13.10
2023-10-25T23:16:01.270Z,13.00
2023-10-25T23:18:28.525Z,12.73
2023-10-25T23:20:55.887Z,12.13
2023-10-25T23:23:22.850Z,12.35
2023-10-25T23:25:49.949Z,11.75
2023-10-25T23:28:17.013Z,11.07
2023-10-25T23:30:43.971Z,12.35
2023-10-25T23:33:11.272Z,13.02
2023-10-25T23:35:38.171Z,12.65
2023-10-25T23:38:05.014Z,12.40
2023-10-25T23:40:32.389Z,12.55
2023-10-25T23:42:59.258Z,12.30
2023-10-25T23:45:27.132Z,12.05
2023-10-25T23:47:53.999Z,12.27
2023-10-25T23:50:20.936Z,12.52
2023-10-25T23:52:47.871Z,12.02
2023-10-25T23:55:15.019Z,11.57
2023-10-25T23:57:42.109Z,11.73
